createdAt,value
2017-02-23T00:00:13.605Z,990.49
2017-02-23T00:01:22.909Z,990.52
2017-02-23T00:02:33.111Z,990.54
2017-02-23T00:03:42.907Z,990.5
2017-02-23T00:04:52.237Z,990.48
2017-02-23T00:06:01.610Z,990.41
2017-02-23T00:07:11.367Z,990.47
2017-02-23T00:08:20.672Z,990.43
2017-02-23T00:09:30.043Z,990.43
2017-02-23T00:10:39.835Z,990.4
2017-02-23T00:11:49.160Z,990.43
2017-02-23T00:12:59.380Z,990.49
2017-02-23T00:14:09.192Z,990.52
2017-02-23T00:15:19.882Z,990.56
2017-02-23T00:16:29.651Z,990.61
2017-02-23T00:17:38.985Z,990.62
2017-02-23T00:18:48.298Z,990.62
2017-02-23T00:19:58.087Z,990.58
2017-02-23T00:21:07.476Z,990.59
2017-02-23T00:22:16.785Z,990.58
2017-02-23T00:23:26.103Z,990.6
2017-02-23T00:24:35.419Z,990.62
2017-02-23T00:25:45.176Z,990.57
2017-02-23T00:26:54.550Z,990.54
2017-02-23T00:28:04.757Z,990.59
2017-02-23T00:29:14.980Z,990.54
2017-02-23T00:30:24.765Z,990.52
2017-02-23T00:31:34.526Z,990.53
2017-02-23T00:32:43.899Z,990.46
2017-02-23T00:33:53.236Z,990.5
2017-02-23T00:35:02.545Z,990.5
2017-02-23T00:36:12.741Z,990.49
2017-02-23T00:37:22.939Z,990.51
2017-02-23T00:38:32.312Z,990.53
2017-02-23T00:39:41.646Z,990.52
2017-02-23T00:40:50.975Z,990.49
2017-02-23T00:42:00.316Z,990.53
2017-02-23T00:43:09.635Z,990.54
2017-02-23T00:44:19.936Z,990.55
2017-02-23T00:45:29.713Z,990.56
2017-02-23T00:46:39.468Z,990.62
2017-02-23T00:47:48.781Z,990.61
2017-02-23T00:48:58.138Z,990.67
2017-02-23T00:50:07.518Z,990.71
2017-02-23T00:51:16.833Z,990.71
2017-02-23T00:52:26.150Z,990.75
2017-02-23T00:53:35.458Z,990.8
2017-02-23T00:54:44.780Z,990.82
2017-02-23T00:55:54.145Z,990.84
2017-02-23T00:57:03.501Z,990.76
2017-02-23T00:58:13.705Z,990.71
2017-02-23T00:59:23.023Z,990.8
2017-02-23T01:00:32.781Z,990.64
2017-02-23T01:01:42.162Z,990.67
2017-02-23T01:02:51.502Z,990.66
2017-02-23T01:04:01.257Z,990.61
2017-02-23T01:05:10.595Z,990.57
2017-02-23T01:06:19.914Z,990.53
2017-02-23T01:07:29.724Z,990.48
2017-02-23T01:08:39.485Z,990.52
2017-02-23T01:09:49.237Z,990.53
2017-02-23T01:10:58.557Z,990.51
2017-02-23T01:12:08.317Z,990.54
2017-02-23T01:13:17.673Z,990.52
2017-02-23T01:14:27.014Z,990.54
2017-02-23T01:15:36.358Z,990.57
2017-02-23T01:16:46.555Z,990.46
2017-02-23T01:17:55.873Z,990.51
2017-02-23T01:19:05.691Z,990.52
2017-02-23T01:20:15.006Z,990.53
2017-02-23T01:21:24.351Z,990.54
2017-02-23T01:22:33.674Z,990.51
2017-02-23T01:23:42.983Z,990.55
2017-02-23T01:24:52.340Z,990.54
2017-02-23T01:26:02.106Z,990.53
2017-02-23T01:27:11.426Z,990.53
2017-02-23T01:28:21.188Z,990.54
2017-02-23T01:29:30.501Z,990.51
2017-02-23T01:30:39.866Z,990.51
2017-02-23T01:31:49.631Z,990.42
2017-02-23T01:32:58.957Z,990.48
2017-02-23T01:34:08.709Z,990.45
2017-02-23T01:35:18.475Z,990.43
2017-02-23T01:36:27.867Z,990.45
2017-02-23T01:37:38.521Z,990.48
2017-02-23T01:38:47.871Z,990.44
2017-02-23T01:39:57.184Z,990.45
2017-02-23T01:41:06.521Z,990.47
2017-02-23T01:42:16.318Z,990.41
2017-02-23T01:43:26.079Z,990.45
2017-02-23T01:44:35.850Z,990.38
2017-02-23T01:45:46.054Z,990.37
2017-02-23T01:46:55.366Z,990.32
2017-02-23T01:48:05.199Z,990.36
2017-02-23T01:49:14.509Z,990.39
2017-02-23T01:50:23.842Z,990.34
2017-02-23T01:51:33.159Z,990.22
2017-02-23T01:52:42.481Z,990.27
2017-02-23T01:53:51.858Z,990.26
2017-02-23T01:55:01.183Z,990.25
2017-02-23T01:56:10.504Z,990.24
2017-02-23T01:57:20.272Z,990.25
2017-02-23T01:58:30.490Z,990.25
2017-02-23T01:59:40.759Z,990.22
2017-02-23T02:00:50.094Z,990.2
2017-02-23T02:01:59.429Z,990.14
2017-02-23T02:03:09.199Z,990.2
2017-02-23T02:04:18.521Z,990.16
2017-02-23T02:05:27.888Z,990.03
2017-02-23T02:06:37.199Z,990.2
2017-02-23T02:07:46.511Z,990.2
2017-02-23T02:08:55.838Z,990.13
2017-02-23T02:10:05.622Z,990.16
2017-02-23T02:11:15.004Z,990.18
2017-02-23T02:12:24.361Z,990.2
2017-02-23T02:13:33.673Z,990.18
2017-02-23T02:14:43.883Z,990.21
2017-02-23T02:15:53.645Z,990.14
2017-02-23T02:17:03.010Z,990.16
2017-02-23T02:18:12.779Z,990.09
2017-02-23T02:19:22.560Z,990.06
2017-02-23T02:20:32.322Z,990.06
2017-02-23T02:21:42.074Z,990.07
2017-02-23T02:22:51.540Z,990.08
2017-02-23T02:24:00.853Z,990.1
2017-02-23T02:25:10.614Z,990.1
2017-02-23T02:26:20.831Z,990.12
2017-02-23T02:27:30.617Z,990.06
2017-02-23T02:28:39.990Z,990.13
2017-02-23T02:29:51.167Z,990.15
2017-02-23T02:31:00.936Z,990.13
2017-02-23T02:32:10.274Z,990.14
2017-02-23T02:33:20.467Z,990.13
2017-02-23T02:34:30.316Z,990.15
2017-02-23T02:35:40.069Z,990.1
2017-02-23T02:36:49.823Z,990.16
2017-02-23T02:37:59.598Z,990.16
2017-02-23T02:39:08.925Z,990.12
2017-02-23T02:40:19.165Z,990.14
2017-02-23T02:41:28.512Z,990.18
2017-02-23T02:42:37.843Z,990.12
2017-02-23T02:43:48.050Z,990.14
2017-02-23T02:44:57.371Z,990.17
2017-02-23T02:46:07.169Z,990.2
2017-02-23T02:47:16.925Z,990.2
2017-02-23T02:48:26.680Z,990.15
2017-02-23T02:49:35.996Z,990.17
2017-02-23T02:50:45.356Z,990.16
2017-02-23T02:51:55.595Z,990.14
2017-02-23T02:53:05.375Z,990.11
2017-02-23T02:54:15.581Z,990.17
2017-02-23T02:55:24.914Z,990.14
2017-02-23T02:56:34.244Z,990.16
2017-02-23T02:57:43.612Z,990.15
2017-02-23T02:58:53.370Z,990.16
2017-02-23T03:00:02.716Z,990.17
2017-02-23T03:01:12.065Z,990.09
2017-02-23T03:02:21.389Z,990.08
2017-02-23T03:03:30.779Z,990.13
2017-02-23T03:04:40.111Z,990.19
2017-02-23T03:05:49.902Z,990.09
2017-02-23T03:06:59.266Z,990.12
2017-02-23T03:08:08.588Z,990.1
2017-02-23T03:09:18.401Z,990.11
2017-02-23T03:10:28.151Z,990.07
2017-02-23T03:11:37.907Z,990
2017-02-23T03:12:47.688Z,990.07
2017-02-23T03:13:57.450Z,990.09
2017-02-23T03:15:07.279Z,990.01
2017-02-23T03:16:17.048Z,990.03
2017-02-23T03:17:26.810Z,989.99
2017-02-23T03:18:36.155Z,990.05
2017-02-23T03:19:45.909Z,990.02
2017-02-23T03:20:55.721Z,990.01
2017-02-23T03:22:05.058Z,990.02
2017-02-23T03:23:14.376Z,990.07
2017-02-23T03:24:23.696Z,990.1
2017-02-23T03:25:33.486Z,990.1
2017-02-23T03:26:42.853Z,990.11
2017-02-23T03:27:52.632Z,990.06
2017-02-23T03:29:01.940Z,990.09
2017-02-23T03:30:12.159Z,990.09
2017-02-23T03:31:22.376Z,990.09
2017-02-23T03:32:31.759Z,990.08
2017-02-23T03:33:41.509Z,990.03
2017-02-23T03:34:51.748Z,990.06
2017-02-23T03:36:01.065Z,990.06
2017-02-23T03:37:10.426Z,990.04
2017-02-23T03:38:20.229Z,990.07
2017-02-23T03:39:29.557Z,990.07
2017-02-23T03:40:38.877Z,990.07
2017-02-23T03:41:48.195Z,990.02
2017-02-23T03:42:57.524Z,990.04
2017-02-23T03:44:07.333Z,989.98
2017-02-23T03:45:16.693Z,989.97
2017-02-23T03:46:26.075Z,989.99
2017-02-23T03:47:35.421Z,989.97
2017-02-23T03:48:45.172Z,989.92
2017-02-23T03:49:54.983Z,989.94
2017-02-23T03:51:04.311Z,989.93
2017-02-23T03:52:14.118Z,989.95
2017-02-23T03:53:23.895Z,989.97
2017-02-23T03:54:33.216Z,989.99
2017-02-23T03:55:43.470Z,989.97
2017-02-23T03:56:52.781Z,989.95
2017-02-23T03:58:02.550Z,989.96
2017-02-23T03:59:12.301Z,990.04
2017-02-23T04:00:21.647Z,990
2017-02-23T04:01:31.628Z,990.02
2017-02-23T04:02:40.953Z,990.05
2017-02-23T04:03:50.273Z,989.97
2017-02-23T04:05:00.487Z,990
2017-02-23T04:06:10.277Z,990
2017-02-23T04:07:20.093Z,989.96
2017-02-23T04:08:29.408Z,989.95
2017-02-23T04:09:39.191Z,990
2017-02-23T04:10:49.402Z,989.96
2017-02-23T04:11:58.711Z,989.96
2017-02-23T04:13:08.080Z,989.98
2017-02-23T04:14:17.402Z,989.99
2017-02-23T04:15:26.723Z,989.92
2017-02-23T04:16:36.050Z,989.92
2017-02-23T04:17:45.846Z,989.91
2017-02-23T04:18:55.254Z,989.93
2017-02-23T04:20:04.596Z,989.89
2017-02-23T04:21:14.808Z,989.94
2017-02-23T04:22:24.138Z,989.88
2017-02-23T04:23:33.476Z,989.88
2017-02-23T04:24:42.849Z,989.9
2017-02-23T04:25:52.189Z,989.91
2017-02-23T04:27:01.530Z,989.88
2017-02-23T04:28:10.848Z,989.9
2017-02-23T04:29:20.162Z,989.96
2017-02-23T04:30:29.533Z,989.94
2017-02-23T04:31:39.728Z,989.9
2017-02-23T04:32:49.070Z,989.91
2017-02-23T04:33:58.386Z,989.91
2017-02-23T04:35:07.700Z,989.92
2017-02-23T04:36:17.077Z,989.82
2017-02-23T04:37:26.434Z,989.84
2017-02-23T04:38:35.759Z,989.85
2017-02-23T04:39:45.116Z,989.83
2017-02-23T04:40:54.430Z,989.79
2017-02-23T04:42:04.234Z,989.77
2017-02-23T04:43:13.544Z,989.8
2017-02-23T04:44:22.857Z,989.79
2017-02-23T04:45:32.170Z,989.74
2017-02-23T04:46:41.487Z,989.73
2017-02-23T04:47:51.304Z,989.73
2017-02-23T04:49:00.613Z,989.69
2017-02-23T04:50:09.947Z,989.73
2017-02-23T04:51:20.152Z,989.7
2017-02-23T04:52:29.461Z,989.74
2017-02-23T04:53:38.818Z,989.74
2017-02-23T04:54:48.135Z,989.67
2017-02-23T04:55:57.897Z,989.7
2017-02-23T04:57:07.656Z,989.68
2017-02-23T04:58:18.309Z,989.7
2017-02-23T04:59:28.861Z,989.66
2017-02-23T05:00:38.205Z,989.67
2017-02-23T05:01:47.958Z,989.64
2017-02-23T05:02:57.711Z,989.67
2017-02-23T05:04:07.488Z,989.62
2017-02-23T05:05:16.850Z,989.57
2017-02-23T05:06:26.171Z,989.56
2017-02-23T05:07:35.500Z,989.57
2017-02-23T05:08:44.845Z,989.53
2017-02-23T05:09:54.198Z,989.59
2017-02-23T05:11:03.584Z,989.61
2017-02-23T05:12:12.903Z,989.61
2017-02-23T05:13:22.690Z,989.58
2017-02-23T05:14:32.503Z,989.57
2017-02-23T05:15:42.255Z,989.56
2017-02-23T05:16:52.078Z,989.58
2017-02-23T05:18:01.839Z,989.53
2017-02-23T05:19:11.198Z,989.54
2017-02-23T05:20:20.958Z,989.48
2017-02-23T05:21:30.726Z,989.52
2017-02-23T05:22:40.084Z,989.51
2017-02-23T05:23:50.299Z,989.46
2017-02-23T05:25:00.525Z,989.43
2017-02-23T05:26:10.727Z,989.45
2017-02-23T05:27:20.068Z,989.43
2017-02-23T05:28:29.433Z,989.45
2017-02-23T05:29:39.199Z,989.46
2017-02-23T05:30:48.536Z,989.37
2017-02-23T05:31:58.337Z,989.41
2017-02-23T05:33:08.110Z,989.35
2017-02-23T05:34:17.476Z,989.36
2017-02-23T05:35:27.271Z,989.34
2017-02-23T05:36:37.038Z,989.32
2017-02-23T05:37:46.832Z,989.29
2017-02-23T05:38:56.616Z,989.32
2017-02-23T05:40:05.977Z,989.27
2017-02-23T05:41:15.307Z,989.26
2017-02-23T05:42:24.615Z,989.24
2017-02-23T05:43:33.929Z,989.22
2017-02-23T05:44:43.246Z,989.2
2017-02-23T05:45:52.611Z,989.15
2017-02-23T05:47:01.929Z,989.1
2017-02-23T05:48:11.266Z,989.1
2017-02-23T05:49:21.467Z,989.13
2017-02-23T05:50:30.788Z,989.06
2017-02-23T05:51:40.597Z,989.03
2017-02-23T05:52:49.911Z,989.01
2017-02-23T05:53:59.248Z,988.94
2017-02-23T05:55:09.029Z,988.94
2017-02-23T05:56:18.354Z,988.9
2017-02-23T05:57:28.183Z,988.88
2017-02-23T05:58:37.833Z,988.86
2017-02-23T05:59:50.228Z,988.83
2017-02-23T06:01:02.335Z,988.79
2017-02-23T06:02:14.553Z,988.78
2017-02-23T06:03:23.946Z,988.73
2017-02-23T06:04:33.265Z,988.68
2017-02-23T06:05:42.588Z,988.68
2017-02-23T06:06:51.933Z,988.65
2017-02-23T06:08:01.283Z,988.63
2017-02-23T06:09:11.092Z,988.6
2017-02-23T06:10:20.409Z,988.62
2017-02-23T06:11:29.724Z,988.56
2017-02-23T06:12:39.479Z,988.54
2017-02-23T06:13:49.259Z,988.45
2017-02-23T06:14:59.522Z,988.49
2017-02-23T06:16:08.879Z,988.46
2017-02-23T06:17:19.078Z,988.49
2017-02-23T06:18:29.302Z,988.44
2017-02-23T06:19:38.650Z,988.44
2017-02-23T06:20:48.918Z,988.4
2017-02-23T06:21:58.681Z,988.38
2017-02-23T06:23:08.446Z,988.37
2017-02-23T06:24:18.667Z,988.41
2017-02-23T06:25:27.995Z,988.37
2017-02-23T06:26:37.461Z,988.32
2017-02-23T06:27:47.222Z,988.36
2017-02-23T06:28:57.000Z,988.34
2017-02-23T06:30:06.784Z,988.29
2017-02-23T06:31:16.542Z,988.33
2017-02-23T06:32:25.903Z,988.31
2017-02-23T06:33:35.255Z,988.31
2017-02-23T06:34:45.014Z,988.3
2017-02-23T06:35:54.346Z,988.27
2017-02-23T06:37:03.691Z,988.3
2017-02-23T06:38:13.088Z,988.25
2017-02-23T06:39:23.734Z,988.25
2017-02-23T06:40:33.071Z,988.2
2017-02-23T06:41:42.383Z,988.17
2017-02-23T06:42:51.698Z,988.2
2017-02-23T06:44:01.527Z,988.18
2017-02-23T06:45:11.296Z,988.15
2017-02-23T06:46:21.521Z,988.18
2017-02-23T06:47:30.840Z,988.16
2017-02-23T06:48:40.176Z,988.16
2017-02-23T06:49:49.549Z,988.17
2017-02-23T06:50:59.298Z,988.18
2017-02-23T06:52:09.051Z,988.1
2017-02-23T06:53:18.805Z,988.12
2017-02-23T06:54:28.160Z,988.07
2017-02-23T06:55:38.875Z,988.05
2017-02-23T06:56:49.108Z,988.02
2017-02-23T06:57:58.452Z,988.03
2017-02-23T06:59:08.205Z,988.02
2017-02-23T07:00:17.515Z,988.02
2017-02-23T07:01:27.349Z,988
2017-02-23T07:02:36.708Z,988
2017-02-23T07:03:46.911Z,988
2017-02-23T07:04:56.668Z,988.01
2017-02-23T07:06:05.984Z,988
2017-02-23T07:07:15.851Z,988.02
2017-02-23T07:08:25.604Z,988.01
2017-02-23T07:09:34.917Z,988.03
2017-02-23T07:10:44.254Z,988.03
2017-02-23T07:11:54.015Z,988.03
2017-02-23T07:13:03.400Z,988.01
2017-02-23T07:14:12.723Z,988.01
2017-02-23T07:15:22.914Z,987.96
2017-02-23T07:16:32.663Z,987.96
2017-02-23T07:17:41.980Z,987.95
2017-02-23T07:18:51.793Z,987.94
2017-02-23T07:20:01.555Z,987.91
2017-02-23T07:21:10.872Z,987.85
2017-02-23T07:22:20.669Z,987.81
2017-02-23T07:23:30.453Z,987.78
2017-02-23T07:24:40.691Z,987.76
2017-02-23T07:25:50.907Z,987.74
2017-02-23T07:27:00.673Z,987.76
2017-02-23T07:28:10.010Z,987.71
2017-02-23T07:29:19.807Z,987.71
2017-02-23T07:30:29.177Z,987.66
2017-02-23T07:31:38.506Z,987.71
2017-02-23T07:32:48.705Z,987.68
2017-02-23T07:33:58.472Z,987.67
2017-02-23T07:35:08.234Z,987.69
2017-02-23T07:36:17.622Z,987.65
2017-02-23T07:37:26.943Z,987.65
2017-02-23T07:38:36.276Z,987.61
2017-02-23T07:39:45.613Z,987.6
2017-02-23T07:40:55.391Z,987.52
2017-02-23T07:42:04.760Z,987.48
2017-02-23T07:43:14.108Z,987.51
2017-02-23T07:44:23.871Z,987.45
2017-02-23T07:45:33.192Z,987.52
2017-02-23T07:46:42.503Z,987.47
2017-02-23T07:47:53.205Z,987.43
2017-02-23T07:49:02.539Z,987.46
2017-02-23T07:50:12.759Z,987.46
2017-02-23T07:51:22.970Z,987.45
2017-02-23T07:52:32.307Z,987.41
2017-02-23T07:53:41.667Z,987.39
2017-02-23T07:54:50.992Z,987.35
2017-02-23T07:56:00.331Z,987.37
2017-02-23T07:57:09.642Z,987.38
2017-02-23T07:58:19.845Z,987.39
2017-02-23T07:59:29.222Z,987.36
2017-02-23T08:00:38.995Z,987.34
2017-02-23T08:01:48.783Z,987.32
2017-02-23T08:02:59.000Z,987.3
2017-02-23T08:04:08.763Z,987.31
2017-02-23T08:05:18.583Z,987.28
2017-02-23T08:06:27.933Z,987.28
2017-02-23T08:07:37.246Z,987.24
2017-02-23T08:08:47.032Z,987.25
2017-02-23T08:09:56.793Z,987.23
2017-02-23T08:11:06.204Z,987.16
2017-02-23T08:12:16.419Z,987.19
2017-02-23T08:13:26.214Z,987.14
2017-02-23T08:14:35.987Z,987.2
2017-02-23T08:15:45.305Z,987.12
2017-02-23T08:16:55.728Z,987.13
2017-02-23T08:18:05.484Z,987.14
2017-02-23T08:19:14.818Z,987.14
2017-02-23T08:20:24.138Z,987.13
2017-02-23T08:21:33.905Z,987.06
2017-02-23T08:22:43.282Z,987.03
2017-02-23T08:23:52.611Z,986.92
2017-02-23T08:25:01.939Z,986.95
2017-02-23T08:26:11.249Z,986.89
2017-02-23T08:27:21.042Z,986.88
2017-02-23T08:28:30.444Z,986.9
2017-02-23T08:29:40.184Z,986.85
2017-02-23T08:30:49.966Z,986.86
2017-02-23T08:31:59.303Z,986.79
2017-02-23T08:33:08.668Z,986.74
2017-02-23T08:34:18.196Z,986.75
2017-02-23T08:35:27.978Z,986.7
2017-02-23T08:36:37.312Z,986.69
2017-02-23T08:37:46.625Z,986.66
2017-02-23T08:38:55.946Z,986.62
2017-02-23T08:40:05.772Z,986.61
2017-02-23T08:41:15.553Z,986.58
2017-02-23T08:42:25.314Z,986.55
2017-02-23T08:43:34.627Z,986.51
2017-02-23T08:44:43.984Z,986.48
2017-02-23T08:45:53.369Z,986.49
2017-02-23T08:47:03.562Z,986.45
2017-02-23T08:48:12.871Z,986.47
2017-02-23T08:49:22.179Z,986.42
2017-02-23T08:50:32.866Z,986.41
2017-02-23T08:51:42.687Z,986.31
2017-02-23T08:52:52.004Z,986.32
2017-02-23T08:54:01.334Z,986.35
2017-02-23T08:55:11.538Z,986.31
2017-02-23T08:56:20.851Z,986.3
2017-02-23T08:57:31.112Z,986.29
2017-02-23T08:58:40.873Z,986.22
2017-02-23T08:59:50.679Z,986.24
2017-02-23T09:00:59.995Z,986.21
2017-02-23T09:02:09.769Z,986.19
2017-02-23T09:03:19.186Z,986.21
2017-02-23T09:04:28.956Z,986.19
2017-02-23T09:05:39.181Z,986.17
2017-02-23T09:06:48.529Z,986.14
2017-02-23T09:07:57.847Z,986.13
2017-02-23T09:09:07.652Z,986.16
2017-02-23T09:10:16.979Z,986.13
2017-02-23T09:11:26.742Z,986.04
2017-02-23T09:12:36.509Z,986.11
2017-02-23T09:13:45.832Z,986.14
2017-02-23T09:14:55.209Z,986.04
2017-02-23T09:16:04.538Z,985.98
2017-02-23T09:17:13.854Z,986.02
2017-02-23T09:18:23.192Z,985.94
2017-02-23T09:19:32.529Z,985.91
2017-02-23T09:20:41.898Z,985.94
2017-02-23T09:21:51.236Z,985.88
2017-02-23T09:23:00.565Z,985.84
2017-02-23T09:24:10.770Z,985.78
2017-02-23T09:25:20.087Z,985.77
2017-02-23T09:26:29.904Z,985.77
2017-02-23T09:27:39.232Z,985.73
2017-02-23T09:28:48.995Z,985.75
2017-02-23T09:29:59.188Z,985.7
2017-02-23T09:31:08.945Z,985.66
2017-02-23T09:32:18.326Z,985.63
2017-02-23T09:33:27.652Z,985.62
2017-02-23T09:34:36.969Z,985.64
2017-02-23T09:35:46.289Z,985.6
2017-02-23T09:36:56.042Z,985.6
2017-02-23T09:38:05.848Z,985.58
2017-02-23T09:39:15.616Z,985.55
2017-02-23T09:40:25.378Z,985.53
2017-02-23T09:41:34.702Z,985.48
2017-02-23T09:42:44.477Z,985.44
2017-02-23T09:43:53.854Z,985.38
2017-02-23T09:45:03.183Z,985.4
2017-02-23T09:46:13.396Z,985.38
2017-02-23T09:47:23.177Z,985.35
2017-02-23T09:48:32.493Z,985.29
2017-02-23T09:49:43.211Z,985.31
2017-02-23T09:50:52.543Z,985.25
2017-02-23T09:52:02.313Z,985.29
2017-02-23T09:53:12.106Z,985.29
2017-02-23T09:54:21.912Z,985.25
2017-02-23T09:55:31.728Z,985.24
2017-02-23T09:56:41.482Z,985.23
2017-02-23T09:57:50.836Z,985.23
2017-02-23T09:59:00.173Z,985.14
2017-02-23T10:00:09.488Z,985.17
2017-02-23T10:01:18.879Z,985.06
2017-02-23T10:02:28.204Z,985.08
2017-02-23T10:03:38.409Z,985.05
2017-02-23T10:04:48.167Z,985.01
2017-02-23T10:05:57.956Z,985.06
2017-02-23T10:07:07.462Z,985.09
2017-02-23T10:08:17.220Z,984.99
2017-02-23T10:09:27.855Z,985.01
2017-02-23T10:10:37.165Z,984.95
2017-02-23T10:11:46.478Z,984.99
2017-02-23T10:12:56.731Z,984.88
2017-02-23T10:14:06.524Z,984.89
2017-02-23T10:15:16.276Z,984.91
2017-02-23T10:16:26.042Z,984.91
2017-02-23T10:17:35.363Z,984.84
2017-02-23T10:18:45.644Z,984.88
2017-02-23T10:19:54.966Z,984.84
2017-02-23T10:21:04.299Z,984.8
2017-02-23T10:22:13.612Z,984.81
2017-02-23T10:23:22.936Z,984.82
2017-02-23T10:24:32.753Z,984.82
2017-02-23T10:25:42.999Z,984.72
2017-02-23T10:26:52.340Z,984.66
2017-02-23T10:28:02.116Z,984.64
2017-02-23T10:29:11.881Z,984.68
2017-02-23T10:30:22.140Z,984.64
2017-02-23T10:31:31.475Z,984.63
2017-02-23T10:32:41.231Z,984.55
2017-02-23T10:33:50.543Z,984.53
2017-02-23T10:35:00.768Z,984.52
2017-02-23T10:36:10.133Z,984.41
2017-02-23T10:37:19.455Z,984.47
2017-02-23T10:38:28.784Z,984.43
2017-02-23T10:39:38.097Z,984.38
2017-02-23T10:40:48.310Z,984.39
2017-02-23T10:41:58.559Z,984.39
2017-02-23T10:43:07.884Z,984.36
2017-02-23T10:44:17.198Z,984.37
2017-02-23T10:45:27.394Z,984.31
2017-02-23T10:46:36.735Z,984.31
2017-02-23T10:47:46.125Z,984.23
2017-02-23T10:48:55.883Z,984.28
2017-02-23T10:50:05.208Z,984.21
2017-02-23T10:51:14.548Z,984.16
2017-02-23T10:52:23.887Z,984.23
2017-02-23T10:53:34.143Z,984.21
2017-02-23T10:54:43.469Z,984.14
2017-02-23T10:55:52.785Z,984.06
2017-02-23T10:57:02.111Z,984.08
2017-02-23T10:58:11.880Z,984.14
2017-02-23T10:59:21.245Z,984.12
2017-02-23T11:00:30.558Z,984.05
2017-02-23T11:01:41.210Z,984.06
2017-02-23T11:02:50.539Z,984.1
2017-02-23T11:03:59.898Z,984.06
2017-02-23T11:05:09.267Z,984.05
2017-02-23T11:06:18.592Z,984.04
2017-02-23T11:07:27.929Z,984.02
2017-02-23T11:08:37.282Z,984.02
2017-02-23T11:09:47.052Z,984
2017-02-23T11:10:56.461Z,983.96
2017-02-23T11:12:05.786Z,983.97
2017-02-23T11:13:15.119Z,983.9
2017-02-23T11:14:24.460Z,983.88
2017-02-23T11:15:34.225Z,983.92
2017-02-23T11:16:44.051Z,983.81
2017-02-23T11:17:53.376Z,983.82
2017-02-23T11:19:02.704Z,983.81
2017-02-23T11:20:12.457Z,983.78
2017-02-23T11:21:22.663Z,983.7
2017-02-23T11:22:32.031Z,983.68
2017-02-23T11:23:41.349Z,983.68
2017-02-23T11:24:51.139Z,983.6
2017-02-23T11:26:00.458Z,983.59
2017-02-23T11:27:10.669Z,983.53
2017-02-23T11:28:20.479Z,983.53
2017-02-23T11:29:29.836Z,983.5
2017-02-23T11:30:39.189Z,983.42
2017-02-23T11:31:48.508Z,983.3
2017-02-23T11:32:58.271Z,983.33
2017-02-23T11:34:08.123Z,983.35
2017-02-23T11:35:17.449Z,983.29
2017-02-23T11:36:26.781Z,983.29
2017-02-23T11:37:36.559Z,983.25
2017-02-23T11:38:46.317Z,983.2
2017-02-23T11:39:55.704Z,983.14
2017-02-23T11:41:05.911Z,983.16
2017-02-23T11:42:15.227Z,983.09
2017-02-23T11:43:24.984Z,983.09
2017-02-23T11:44:34.320Z,983.06
2017-02-23T11:45:45.026Z,983.04
2017-02-23T11:46:54.784Z,983.03
2017-02-23T11:48:04.558Z,983.01
2017-02-23T11:49:14.783Z,983.01
2017-02-23T11:50:24.126Z,982.95
2017-02-23T11:51:33.935Z,982.93
2017-02-23T11:52:43.274Z,982.92
2017-02-23T11:53:52.584Z,982.87
2017-02-23T11:55:01.910Z,982.94
2017-02-23T11:56:11.244Z,982.94
2017-02-23T11:57:21.055Z,982.89
2017-02-23T11:58:30.386Z,982.88
2017-02-23T11:59:40.153Z,982.84
2017-02-23T12:00:49.470Z,982.78
2017-02-23T12:01:58.783Z,982.72
2017-02-23T12:03:08.164Z,982.66
2017-02-23T12:04:17.916Z,982.64
2017-02-23T12:05:27.247Z,982.67
2017-02-23T12:06:37.030Z,982.55
2017-02-23T12:07:46.365Z,982.61
2017-02-23T12:08:56.222Z,982.59
2017-02-23T12:10:05.570Z,982.53
2017-02-23T12:11:15.801Z,982.53
2017-02-23T12:12:25.184Z,982.45
2017-02-23T12:13:35.395Z,982.43
2017-02-23T12:14:44.757Z,982.34
2017-02-23T12:15:54.084Z,982.34
2017-02-23T12:17:03.850Z,982.28
2017-02-23T12:18:13.179Z,982.31
2017-02-23T12:19:22.499Z,982.28
2017-02-23T12:20:32.290Z,982.25
2017-02-23T12:21:41.629Z,982.16
2017-02-23T12:22:51.404Z,982.12
2017-02-23T12:24:01.616Z,982.12
2017-02-23T12:25:12.706Z,982.08
2017-02-23T12:26:22.519Z,982.08
2017-02-23T12:27:32.292Z,981.99
2017-02-23T12:28:42.494Z,981.97
2017-02-23T12:29:51.815Z,981.95
2017-02-23T12:31:01.136Z,981.93
2017-02-23T12:32:10.967Z,981.86
2017-02-23T12:33:20.293Z,981.91
2017-02-23T12:34:30.487Z,981.77
2017-02-23T12:35:40.253Z,981.76
2017-02-23T12:36:49.590Z,981.75
2017-02-23T12:37:58.967Z,981.79
2017-02-23T12:39:08.320Z,981.71
2017-02-23T12:40:17.657Z,981.79
2017-02-23T12:41:26.997Z,981.75
2017-02-23T12:42:36.323Z,981.84
2017-02-23T12:43:45.831Z,981.82
2017-02-23T12:44:55.152Z,981.73
2017-02-23T12:46:05.357Z,981.66
2017-02-23T12:47:14.660Z,981.6
2017-02-23T12:48:24.003Z,981.58
2017-02-23T12:49:33.858Z,981.58
2017-02-23T12:50:43.615Z,981.52
2017-02-23T12:51:52.956Z,981.46
2017-02-23T12:53:02.310Z,981.47
2017-02-23T12:54:11.619Z,981.4
2017-02-23T12:55:21.431Z,981.34
2017-02-23T12:56:30.741Z,981.24
2017-02-23T12:57:40.513Z,981.14
2017-02-23T12:58:50.731Z,981.18
2017-02-23T13:00:00.062Z,981.06
2017-02-23T13:01:09.885Z,981.06
2017-02-23T13:02:19.654Z,981.03
2017-02-23T13:03:29.012Z,981.07
2017-02-23T13:04:39.209Z,981.03
2017-02-23T13:05:48.521Z,981.05
2017-02-23T13:06:57.936Z,981.04
2017-02-23T13:08:07.264Z,980.97
2017-02-23T13:09:17.033Z,980.95
2017-02-23T13:10:26.811Z,980.88
2017-02-23T13:11:37.022Z,980.85
2017-02-23T13:12:47.268Z,980.79
2017-02-23T13:13:56.594Z,980.73
2017-02-23T13:15:05.935Z,980.67
2017-02-23T13:16:16.153Z,980.47
2017-02-23T13:17:25.492Z,980.5
2017-02-23T13:18:34.855Z,980.54
2017-02-23T13:19:44.180Z,980.47
2017-02-23T13:20:53.509Z,980.51
2017-02-23T13:22:03.289Z,980.62
2017-02-23T13:23:12.600Z,980.47
2017-02-23T13:24:21.960Z,980.6
2017-02-23T13:25:31.309Z,980.57
2017-02-23T13:26:41.075Z,980.53
2017-02-23T13:27:51.299Z,980.5
2017-02-23T13:29:01.493Z,980.56
2017-02-23T13:30:11.267Z,980.46
2017-02-23T13:31:20.596Z,980.45
2017-02-23T13:32:29.933Z,980.44
2017-02-23T13:33:39.706Z,980.44
2017-02-23T13:34:49.015Z,980.32
2017-02-23T13:35:58.405Z,980.26
2017-02-23T13:37:08.212Z,980.23
2017-02-23T13:38:17.999Z,980.23
2017-02-23T13:39:27.771Z,980.18
2017-02-23T13:40:37.985Z,980.16
2017-02-23T13:41:48.246Z,980.07
2017-02-23T13:42:58.010Z,979.96
2017-02-23T13:44:08.211Z,979.95
2017-02-23T13:45:17.534Z,979.86
2017-02-23T13:46:28.531Z,979.71
2017-02-23T13:47:39.609Z,979.62
2017-02-23T13:48:50.222Z,979.4
2017-02-23T13:50:00.159Z,979.42
2017-02-23T13:51:10.634Z,979.4
2017-02-23T13:52:21.656Z,979.28
2017-02-23T13:53:33.153Z,979.29
2017-02-23T13:54:44.579Z,979.27
2017-02-23T13:55:56.000Z,979.27
2017-02-23T13:57:07.449Z,979.27
2017-02-23T13:58:18.874Z,979.04
2017-02-23T13:59:29.661Z,978.76
2017-02-23T14:00:40.411Z,978.6
2017-02-23T14:01:51.450Z,978.54
2017-02-23T14:03:02.500Z,978.58
2017-02-23T14:04:12.666Z,978.49
2017-02-23T14:05:22.263Z,978.56
2017-02-23T14:06:31.656Z,978.56
2017-02-23T14:07:42.212Z,978.53
2017-02-23T14:08:52.829Z,978.64
2017-02-23T14:10:02.734Z,978.75
2017-02-23T14:11:14.224Z,978.71
2017-02-23T14:12:25.221Z,978.67
2017-02-23T14:13:36.674Z,978.66
2017-02-23T14:14:47.671Z,978.49
2017-02-23T14:15:59.117Z,978.45
2017-02-23T14:17:10.638Z,978.49
2017-02-23T14:18:21.635Z,978.43
2017-02-23T14:19:33.104Z,978.43
2017-02-23T14:20:44.097Z,978.41
2017-02-23T14:21:55.559Z,978.37
2017-02-23T14:23:07.036Z,978.31
2017-02-23T14:24:18.473Z,978.34
2017-02-23T14:25:29.894Z,978.32
2017-02-23T14:26:41.335Z,978.27
2017-02-23T14:27:52.752Z,978.2
2017-02-23T14:29:04.234Z,978.13
2017-02-23T14:30:15.655Z,978.2
2017-02-23T14:31:26.648Z,977.99
2017-02-23T14:32:38.089Z,978.03